Time;durP1;ratioP1;P1;durP2;ratioP2;P2;SDS_P1;SDS_P2;PMS_P1;PMS_P2;Temp;Humidity;BMP_temperature;BMP_pressure;BME280_temperature;BME280_humidity;BME280_pressure;Samples;Min_cycle;Max_cycle;Signal;HPM_P1;HPM_P2
2024/04/26 00:01:25;;;;;;;;;;;16.80;52.60;;;;;;5488817;26;19935;-68
2024/04/26 00:03:51;;;;;;;;;;;16.80;52.90;;;;;;5488573;26;20358;-69
2024/04/26 00:06:17;;;;;;;;;;;16.70;53.10;;;;;;5488826;26;19932;-69
2024/04/26 00:08:43;;;;;;;;;;;16.80;52.90;;;;;;5489213;26;19996;-69
2024/04/26 00:11:09;;;;;;;;;;;16.80;53.20;;;;;;5488712;26;19935;-69
2024/04/26 00:13:35;;;;;;;;;;;16.70;53.10;;;;;;5488958;26;19931;-69
2024/04/26 00:16:01;;;;;;;;;;;16.80;53.20;;;;;;5488484;26;19928;-69
2024/04/26 00:18:27;;;;;;;;;;;16.80;53.10;;;;;;5488481;26;19938;-69
2024/04/26 00:20:52;;;;;;;;;;;16.70;53.10;;;;;;5487391;26;20025;-69
2024/04/26 00:23:18;;;;;;;;;;;16.70;53.10;;;;;;5488683;26;19931;-69
2024/04/26 00:25:43;;;;;;;;;;;16.70;53.30;;;;;;5488661;26;19935;-69
2024/04/26 00:28:09;;;;;;;;;;;16.70;53.10;;;;;;5488610;26;19940;-69
2024/04/26 00:30:35;;;;;;;;;;;16.70;53.00;;;;;;5488418;26;20391;-69
2024/04/26 00:33:02;;;;;;;;;;;16.70;53.20;;;;;;5488275;26;19928;-69
2024/04/26 00:35:28;;;;;;;;;;;16.70;53.10;;;;;;5488501;26;19957;-69
2024/04/26 00:37:55;;;;;;;;;;;16.80;53.00;;;;;;5488360;26;19942;-69
2024/04/26 00:40:26;;;;;;;;;;;16.80;52.90;;;;;;5488358;26;19976;-79
2024/04/26 00:42:53;;;;;;;;;;;16.70;50.70;;;;;;5488382;26;19932;-79
2024/04/26 00:45:18;;;;;;;;;;;16.70;53.00;;;;;;5488362;26;20414;-79
2024/04/26 00:47:45;;;;;;;;;;;16.70;53.20;;;;;;5488067;26;19962;-79
2024/04/26 00:50:11;;;;;;;;;;;16.70;53.10;;;;;;5488366;26;19996;-79
2024/04/26 00:52:37;;;;;;;;;;;16.70;53.00;;;;;;5488241;26;19942;-79
2024/04/26 00:55:03;;;;;;;;;;;16.70;53.90;;;;;;5488231;26;19928;-79
2024/04/26 00:57:29;;;;;;;;;;;16.70;52.60;;;;;;5488326;26;20377;-79
2024/04/26 00:59:55;;;;;;;;;;;16.70;53.20;;;;;;5488193;26;20318;-79
2024/04/26 01:02:21;;;;;;;;;;;16.80;52.70;;;;;;5488080;26;19939;-79
2024/04/26 01:04:47;;;;;;;;;;;16.60;53.30;;;;;;5487766;26;19932;-79
2024/04/26 01:07:12;;;;;;;;;;;16.70;53.20;;;;;;5488048;26;19928;-80
2024/04/26 01:09:38;;;;;;;;;;;16.70;53.00;;;;;;5488004;26;20429;-79
2024/04/26 01:12:04;;;;;;;;;;;16.70;53.40;;;;;;5487773;26;19935;-79
2024/04/26 01:14:30;;;;;;;;;;;16.70;53.00;;;;;;5488043;26;19954;-69
2024/04/26 01:16:56;;;;;;;;;;;16.70;53.20;;;;;;5487767;26;19934;-69
2024/04/26 01:19:22;;;;;;;;;;;16.70;53.30;;;;;;5487790;26;19936;-69
2024/04/26 01:21:47;;;;;;;;;;;16.70;53.40;;;;;;5487925;26;19939;-69
2024/04/26 01:24:13;;;;;;;;;;;16.70;53.30;;;;;;5487864;26;20002;-69
2024/04/26 01:26:38;;;;;;;;;;;16.70;53.00;;;;;;5487524;26;19935;-69
2024/04/26 01:29:04;;;;;;;;;;;16.70;53.30;;;;;;5487473;26;19939;-69
2024/04/26 01:31:29;;;;;;;;;;;16.70;53.30;;;;;;5486932;26;20331;-69
2024/04/26 01:33:55;;;;;;;;;;;16.70;53.30;;;;;;5487396;26;19959;-69
2024/04/26 01:36:20;;;;;;;;;;;16.70;52.80;;;;;;5487514;26;19934;-69
2024/04/26 01:38:46;;;;;;;;;;;16.70;53.20;;;;;;5487175;26;19940;-69
2024/04/26 01:41:11;;;;;;;;;;;16.70;53.30;;;;;;5487429;26;20268;-69
2024/04/26 01:43:37;;;;;;;;;;;16.70;53.20;;;;;;5487126;26;19928;-69
2024/04/26 01:46:03;;;;;;;;;;;16.70;53.30;;;;;;5487389;26;19939;-69
2024/04/26 01:48:28;;;;;;;;;;;16.70;53.20;;;;;;5487124;26;20581;-69
2024/04/26 01:50:54;;;;;;;;;;;16.70;53.40;;;;;;5486922;26;19996;-69
2024/04/26 01:53:19;;;;;;;;;;;16.70;53.30;;;;;;5487166;26;19958;-69
2024/04/26 01:55:45;;;;;;;;;;;16.70;53.10;;;;;;5486917;26;19931;-69
2024/04/26 01:58:10;;;;;;;;;;;16.70;53.40;;;;;;5486848;26;19996;-69
2024/04/26 02:00:36;;;;;;;;;;;16.70;53.40;;;;;;5487377;26;20298;-69
2024/04/26 02:03:01;;;;;;;;;;;16.70;52.90;;;;;;5486609;26;19928;-68
2024/04/26 02:05:27;;;;;;;;;;;16.70;53.50;;;;;;5486408;26;20382;-69
2024/04/26 02:07:52;;;;;;;;;;;16.70;53.40;;;;;;5486515;26;19927;-69
2024/04/26 02:10:18;;;;;;;;;;;16.60;53.70;;;;;;5486555;26;19936;-69
2024/04/26 02:12:44;;;;;;;;;;;16.70;53.60;;;;;;5486708;26;19928;-69
2024/04/26 02:15:09;;;;;;;;;;;16.70;54.30;;;;;;5486970;26;19932;-69
2024/04/26 02:17:37;;;;;;;;;;;16.70;53.70;;;;;;5486638;26;20255;-69
2024/04/26 02:20:04;;;;;;;;;;;16.60;53.60;;;;;;5486821;26;19935;-69
2024/04/26 02:22:29;;;;;;;;;;;16.40;53.00;;;;;;5486650;26;19934;-68
2024/04/26 02:24:55;;;;;;;;;;;16.70;53.40;;;;;;5486641;26;19928;-69
2024/04/26 02:27:20;;;;;;;;;;;16.70;53.80;;;;;;5486523;26;20328;-69
2024/04/26 02:29:46;;;;;;;;;;;16.80;53.20;;;;;;5486837;26;19935;-69
2024/04/26 02:32:11;;;;;;;;;;;16.70;53.80;;;;;;5486520;26;20226;-69
2024/04/26 02:34:37;;;;;;;;;;;16.60;53.60;;;;;;5486411;26;19998;-69
2024/04/26 02:37:02;;;;;;;;;;;16.70;53.90;;;;;;5484528;26;19928;-69
2024/04/26 02:39:28;;;;;;;;;;;16.70;53.50;;;;;;5486047;26;19932;-69
2024/04/26 02:41:53;;;;;;;;;;;16.70;53.80;;;;;;5486045;26;19996;-69
2024/04/26 02:44:18;;;;;;;;;;;16.70;53.70;;;;;;5489548;26;19928;-69
2024/04/26 02:46:44;;;;;;;;;;;16.70;53.70;;;;;;5489799;26;20046;-69
2024/04/26 02:49:09;;;;;;;;;;;16.90;54.00;;;;;;5489734;26;19938;-69
2024/04/26 02:51:35;;;;;;;;;;;16.70;54.00;;;;;;5487600;26;19935;-69
2024/04/26 02:54:00;;;;;;;;;;;16.70;53.80;;;;;;5488224;26;20288;-69
2024/04/26 02:56:26;;;;;;;;;;;16.70;53.90;;;;;;5489743;26;20590;-69
2024/04/26 02:58:52;;;;;;;;;;;16.80;53.40;;;;;;5490223;26;19944;-78
2024/04/26 03:01:17;;;;;;;;;;;16.70;53.70;;;;;;5489824;26;19928;-79
2024/04/26 03:03:43;;;;;;;;;;;16.80;53.20;;;;;;5489433;26;19928;-79
2024/04/26 03:06:09;;;;;;;;;;;16.40;53.70;;;;;;5490003;26;20414;-79
2024/04/26 03:08:35;;;;;;;;;;;16.70;53.60;;;;;;5489669;26;19932;-78
2024/04/26 03:11:01;;;;;;;;;;;16.70;53.00;;;;;;5489657;26;20326;-79
2024/04/26 03:13:27;;;;;;;;;;;16.70;53.80;;;;;;5489763;26;19927;-78
2024/04/26 03:15:52;;;;;;;;;;;16.70;53.40;;;;;;5489910;26;19996;-79
2024/04/26 03:18:18;;;;;;;;;;;16.70;53.80;;;;;;5489497;26;20001;-77
2024/04/26 03:20:45;;;;;;;;;;;16.70;53.70;;;;;;5489629;26;19935;-79
2024/04/26 03:23:11;;;;;;;;;;;16.60;53.40;;;;;;5489403;26;19936;-78
2024/04/26 03:25:36;;;;;;;;;;;16.70;53.60;;;;;;5489797;26;19935;-79
2024/04/26 03:28:02;;;;;;;;;;;16.60;53.70;;;;;;5490246;26;20000;-79
2024/04/26 03:30:27;;;;;;;;;;;16.70;53.90;;;;;;5489670;26;20014;-78
2024/04/26 03:32:53;;;;;;;;;;;16.70;53.80;;;;;;5489512;26;19938;-79
2024/04/26 03:35:18;;;;;;;;;;;16.60;53.80;;;;;;5489421;26;19960;-79
2024/04/26 03:37:44;;;;;;;;;;;16.60;53.70;;;;;;5489618;26;19975;-78
2024/04/26 03:40:12;;;;;;;;;;;16.70;54.00;;;;;;5489233;26;19928;-79
2024/04/26 03:42:41;;;;;;;;;;;16.60;51.80;;;;;;5489507;26;19927;-79
2024/04/26 03:45:06;;;;;;;;;;;16.60;54.00;;;;;;5489520;26;19935;-79
2024/04/26 03:47:32;;;;;;;;;;;16.70;53.70;;;;;;5489075;26;20014;-78
2024/04/26 03:49:57;;;;;;;;;;;16.60;53.80;;;;;;5489235;26;19928;-79
2024/04/26 03:52:23;;;;;;;;;;;16.70;53.90;;;;;;5489142;26;19997;-79
2024/04/26 03:54:48;;;;;;;;;;;16.80;53.60;;;;;;5489490;26;20347;-79
2024/04/26 03:57:14;;;;;;;;;;;16.60;54.00;;;;;;5489099;26;20000;-79
2024/04/26 03:59:39;;;;;;;;;;;16.70;54.10;;;;;;5489059;26;19935;-78
2024/04/26 04:02:05;;;;;;;;;;;16.70;53.70;;;;;;5489173;26;19928;-78
2024/04/26 04:04:30;;;;;;;;;;;16.70;53.80;;;;;;5488945;26;19928;-79
2024/04/26 04:06:56;;;;;;;;;;;16.70;54.10;;;;;;5487189;26;19932;-79
2024/04/26 04:09:21;;;;;;;;;;;16.70;54.10;;;;;;5488871;26;19928;-79
2024/04/26 04:11:47;;;;;;;;;;;16.70;54.10;;;;;;5488908;26;19936;-78
2024/04/26 04:14:12;;;;;;;;;;;16.70;54.30;;;;;;5488897;26;19946;-79
2024/04/26 04:16:39;;;;;;;;;;;16.70;52.60;;;;;;5487656;26;20418;-79
2024/04/26 04:19:05;;;;;;;;;;;16.70;54.50;;;;;;5488628;26;20000;-78
2024/04/26 04:21:30;;;;;;;;;;;16.70;54.40;;;;;;5488842;26;19928;-79
2024/04/26 04:23:56;;;;;;;;;;;16.70;54.50;;;;;;5489232;26;20387;-79
2024/04/26 04:26:21;;;;;;;;;;;16.70;54.30;;;;;;5488581;26;19928;-79
2024/04/26 04:28:47;;;;;;;;;;;16.70;54.40;;;;;;5488471;26;20267;-78
2024/04/26 04:31:13;;;;;;;;;;;16.70;54.60;;;;;;5488061;26;19928;-78
2024/04/26 04:33:38;;;;;;;;;;;16.70;54.60;;;;;;5488194;26;20030;-79
2024/04/26 04:36:04;;;;;;;;;;;16.70;54.80;;;;;;5488347;26;19928;-79
2024/04/26 04:38:29;;;;;;;;;;;16.70;54.00;;;;;;5486636;26;19935;-79
2024/04/26 04:40:55;;;;;;;;;;;16.70;54.60;;;;;;5488291;26;19936;-79
2024/04/26 04:43:20;;;;;;;;;;;16.70;54.90;;;;;;5488262;26;19928;-79
2024/04/26 04:45:46;;;;;;;;;;;16.70;54.80;;;;;;5488331;26;20267;-79
2024/04/26 04:48:11;;;;;;;;;;;16.70;55.00;;;;;;5487956;26;19928;-78
2024/04/26 04:50:37;;;;;;;;;;;16.70;54.90;;;;;;5487877;26;19936;-79
2024/04/26 04:53:05;;;;;;;;;;;16.70;55.10;;;;;;5488551;26;19927;-69
2024/04/26 04:55:30;;;;;;;;;;;16.40;54.70;;;;;;5488224;26;20262;-68
2024/04/26 04:57:55;;;;;;;;;;;16.70;55.00;;;;;;5487706;26;19928;-69
2024/04/26 05:00:21;;;;;;;;;;;16.70;55.00;;;;;;5488101;26;19936;-68
2024/04/26 05:02:46;;;;;;;;;;;16.80;54.60;;;;;;5487917;26;20273;-69
2024/04/26 05:05:12;;;;;;;;;;;16.70;55.10;;;;;;5487015;26;19965;-69
2024/04/26 05:07:37;;;;;;;;;;;16.70;55.00;;;;;;5488080;26;20366;-69
2024/04/26 05:10:03;;;;;;;;;;;16.70;55.00;;;;;;5487642;26;19935;-69
2024/04/26 05:12:29;;;;;;;;;;;16.70;54.50;;;;;;5487824;26;19928;-69
2024/04/26 05:14:54;;;;;;;;;;;16.70;54.80;;;;;;5488270;26;19939;-69
2024/04/26 05:17:20;;;;;;;;;;;16.70;55.10;;;;;;5487981;26;19935;-69
2024/04/26 05:19:45;;;;;;;;;;;16.70;55.00;;;;;;5488322;26;19996;-69
2024/04/26 05:22:11;;;;;;;;;;;16.70;55.10;;;;;;5487720;26;19928;-69
2024/04/26 05:24:37;;;;;;;;;;;17.20;55.10;;;;;;5487696;26;19935;-69
2024/04/26 05:27:03;;;;;;;;;;;16.70;54.90;;;;;;5487837;26;19935;-69
2024/04/26 05:29:29;;;;;;;;;;;16.70;54.90;;;;;;5487772;26;19932;-69
2024/04/26 05:31:54;;;;;;;;;;;16.70;55.00;;;;;;5487918;26;19936;-69
2024/04/26 05:34:20;;;;;;;;;;;16.70;55.00;;;;;;5488049;26;19932;-69
2024/04/26 05:36:46;;;;;;;;;;;16.60;55.10;;;;;;5487464;26;19935;-69
2024/04/26 05:39:11;;;;;;;;;;;16.70;55.00;;;;;;5487629;26;20063;-69
2024/04/26 05:41:37;;;;;;;;;;;16.70;54.90;;;;;;5487368;26;19931;-69
2024/04/26 05:44:02;;;;;;;;;;;16.70;55.00;;;;;;5487445;26;19935;-68
2024/04/26 05:46:28;;;;;;;;;;;16.70;55.00;;;;;;5487529;26;19928;-69
2024/04/26 05:48:53;;;;;;;;;;;16.70;55.00;;;;;;5487308;26;19928;-68
2024/04/26 05:51:19;;;;;;;;;;;16.70;55.00;;;;;;5487048;26;19932;-68
2024/04/26 05:53:45;;;;;;;;;;;16.70;54.80;;;;;;5487012;26;20059;-69
2024/04/26 05:56:11;;;;;;;;;;;16.80;55.10;;;;;;5487209;26;19928;-68
2024/04/26 05:58:36;;;;;;;;;;;16.80;55.20;;;;;;5487195;26;19928;-70
2024/04/26 06:01:02;;;;;;;;;;;16.80;55.40;;;;;;5487113;26;19972;-69
2024/04/26 06:03:28;;;;;;;;;;;16.80;54.40;;;;;;5486708;26;19936;-68
2024/04/26 06:05:54;;;;;;;;;;;16.80;55.00;;;;;;5486463;26;19996;-69
2024/04/26 06:08:20;;;;;;;;;;;16.80;55.20;;;;;;5487016;26;19928;-69
2024/04/26 06:10:45;;;;;;;;;;;16.80;55.20;;;;;;5486747;26;19961;-69
2024/04/26 06:13:11;;;;;;;;;;;16.90;55.20;;;;;;5486537;26;19956;-69
2024/04/26 06:15:36;;;;;;;;;;;16.80;55.10;;;;;;5486478;26;19935;-69
2024/04/26 06:18:05;;;;;;;;;;;16.80;55.10;;;;;;5487795;26;19938;-70
2024/04/26 06:20:31;;;;;;;;;;;16.80;54.90;;;;;;5488410;26;20326;-69
2024/04/26 06:22:57;;;;;;;;;;;16.50;54.50;;;;;;5490082;26;19928;-69
2024/04/26 06:25:25;;;;;;;;;;;17.00;55.40;;;;;;5490911;26;19927;-70
2024/04/26 06:27:54;;;;;;;;;;;16.80;54.90;;;;;;5490452;26;19940;-69
2024/04/26 06:30:19;;;;;;;;;;;16.80;55.10;;;;;;5489918;26;20001;-70
2024/04/26 06:32:45;;;;;;;;;;;16.90;55.20;;;;;;5490291;25;19936;-70
2024/04/26 06:35:10;;;;;;;;;;;16.80;55.10;;;;;;5490155;26;19928;-69
2024/04/26 06:37:36;;;;;;;;;;;16.80;55.10;;;;;;5490268;26;20247;-68
2024/04/26 06:40:02;;;;;;;;;;;16.80;55.00;;;;;;5489755;26;20328;-68
2024/04/26 06:42:27;;;;;;;;;;;16.80;55.00;;;;;;5489944;26;19928;-68
2024/04/26 06:44:53;;;;;;;;;;;16.90;55.40;;;;;;5489949;26;20254;-68
2024/04/26 06:47:19;;;;;;;;;;;16.80;55.20;;;;;;5489873;26;19956;-68
2024/04/26 06:49:45;;;;;;;;;;;16.90;55.30;;;;;;5489846;26;19928;-68
2024/04/26 06:52:11;;;;;;;;;;;16.90;55.00;;;;;;5490081;26;20054;-69
2024/04/26 06:54:37;;;;;;;;;;;16.90;55.40;;;;;;5489908;26;19928;-69
2024/04/26 06:57:02;;;;;;;;;;;16.90;55.20;;;;;;5489782;26;20254;-68
2024/04/26 06:59:28;;;;;;;;;;;16.90;55.20;;;;;;5489576;26;19928;-68
2024/04/26 07:01:56;;;;;;;;;;;17.00;54.70;;;;;;5489177;26;19928;-68
2024/04/26 07:04:21;;;;;;;;;;;17.00;55.10;;;;;;5489273;26;19928;-71
2024/04/26 07:06:47;;;;;;;;;;;17.00;54.90;;;;;;5489222;26;20373;-68
2024/04/26 07:09:12;;;;;;;;;;;17.00;55.10;;;;;;5488800;26;19928;-69
2024/04/26 07:11:38;;;;;;;;;;;17.10;54.40;;;;;;5488649;26;20278;-68
2024/04/26 07:14:06;;;;;;;;;;;17.30;54.50;;;;;;5488690;26;19939;-69
2024/04/26 07:16:31;;;;;;;;;;;17.40;54.00;;;;;;5488836;26;19927;-69
2024/04/26 07:18:57;;;;;;;;;;;17.50;54.10;;;;;;5488929;26;19940;-69
2024/04/26 07:21:23;;;;;;;;;;;17.60;53.90;;;;;;5488840;26;20259;-69
2024/04/26 07:23:48;;;;;;;;;;;17.60;52.30;;;;;;5489093;26;19931;-69
2024/04/26 07:26:15;;;;;;;;;;;17.80;53.50;;;;;;5488971;26;19928;-68
2024/04/26 07:28:41;;;;;;;;;;;17.80;53.10;;;;;;5488809;26;19935;-69
2024/04/26 07:31:08;;;;;;;;;;;17.80;53.10;;;;;;5488482;26;19936;-69
2024/04/26 07:33:33;;;;;;;;;;;17.90;53.50;;;;;;5489030;26;19973;-69
2024/04/26 07:35:59;;;;;;;;;;;17.80;53.60;;;;;;5489061;26;19952;-70
2024/04/26 07:38:25;;;;;;;;;;;17.80;53.60;;;;;;5490029;26;19934;-71
2024/04/26 07:40:50;;;;;;;;;;;17.90;53.60;;;;;;5489601;26;19937;-69
2024/04/26 07:43:16;;;;;;;;;;;17.80;53.70;;;;;;5488873;26;19968;-70
2024/04/26 07:45:42;;;;;;;;;;;17.80;53.60;;;;;;5488533;26;19998;-71
2024/04/26 07:48:07;;;;;;;;;;;17.80;53.70;;;;;;5488664;26;19936;-70
2024/04/26 07:50:33;;;;;;;;;;;17.90;53.30;;;;;;5488847;26;19939;-70
2024/04/26 07:52:58;;;;;;;;;;;17.80;53.60;;;;;;5488322;26;19988;-70
2024/04/26 07:55:25;;;;;;;;;;;19.10;54.80;;;;;;5488950;26;19928;-71
2024/04/26 07:57:51;;;;;;;;;;;17.80;54.20;;;;;;5488513;26;19928;-71
2024/04/26 08:00:16;;;;;;;;;;;18.00;54.40;;;;;;5488551;26;19928;-72
2024/04/26 08:02:44;;;;;;;;;;;17.80;54.50;;;;;;5488350;26;20282;-70
2024/04/26 08:05:10;;;;;;;;;;;17.70;54.30;;;;;;5488758;26;19927;-70
2024/04/26 08:07:35;;;;;;;;;;;17.70;54.50;;;;;;5488833;26;20014;-70
2024/04/26 08:10:01;;;;;;;;;;;17.70;54.60;;;;;;5488569;26;19928;-70
2024/04/26 08:12:26;;;;;;;;;;;17.70;54.70;;;;;;5488324;26;19928;-71
2024/04/26 08:14:52;;;;;;;;;;;17.70;54.80;;;;;;5488042;26;19935;-70
2024/04/26 08:17:17;;;;;;;;;;;17.70;54.90;;;;;;5488230;26;19935;-70
2024/04/26 08:19:43;;;;;;;;;;;17.80;54.60;;;;;;5488187;26;19932;-70
2024/04/26 08:22:08;;;;;;;;;;;17.70;54.90;;;;;;5488137;26;19928;-70
2024/04/26 08:24:34;;;;;;;;;;;17.80;54.40;;;;;;5488183;26;19927;-71
2024/04/26 08:26:59;;;;;;;;;;;17.70;55.30;;;;;;5488065;26;20238;-71
2024/04/26 08:29:25;;;;;;;;;;;17.80;55.20;;;;;;5488134;26;19929;-71
2024/04/26 08:31:50;;;;;;;;;;;17.80;55.00;;;;;;5487898;26;19993;-70
2024/04/26 08:34:16;;;;;;;;;;;17.80;55.20;;;;;;5488601;26;19935;-70
2024/04/26 08:36:43;;;;;;;;;;;17.80;55.00;;;;;;5489008;26;20055;-71
2024/04/26 08:39:11;;;;;;;;;;;17.90;55.20;;;;;;5490685;26;19928;-71
2024/04/26 08:41:38;;;;;;;;;;;17.80;54.70;;;;;;5487733;26;19928;-70
2024/04/26 08:44:04;;;;;;;;;;;17.90;55.20;;;;;;5488423;26;20323;-71
2024/04/26 08:46:31;;;;;;;;;;;17.80;55.90;;;;;;5487782;26;19935;-72
2024/04/26 08:48:57;;;;;;;;;;;17.90;56.00;;;;;;5488077;26;20059;-71
2024/04/26 08:51:23;;;;;;;;;;;18.00;56.30;;;;;;5485270;26;19953;-69
2024/04/26 08:53:51;;;;;;;;;;;17.90;55.90;;;;;;5488396;26;20373;-69
2024/04/26 08:56:19;;;;;;;;;;;18.50;53.10;;;;;;5488326;26;19968;-69
2024/04/26 08:58:46;;;;;;;;;;;18.10;56.10;;;;;;5488345;26;19928;-68
2024/04/26 09:01:12;;;;;;;;;;;18.10;56.10;;;;;;5487865;26;20019;-70
2024/04/26 09:03:38;;;;;;;;;;;18.20;55.90;;;;;;5488018;26;19927;-71
2024/04/26 09:06:03;;;;;;;;;;;18.20;56.50;;;;;;5488189;26;19928;-70
2024/04/26 09:08:29;;;;;;;;;;;18.20;56.00;;;;;;5488052;26;20387;-70
2024/04/26 09:10:54;;;;;;;;;;;18.30;56.70;;;;;;5487677;26;19934;-70
2024/04/26 09:13:24;;;;;;;;;;;18.30;56.70;;;;;;5487928;26;19928;-71
2024/04/26 09:15:50;;;;;;;;;;;18.30;56.80;;;;;;5488139;26;20017;-71
2024/04/26 09:18:15;;;;;;;;;;;18.30;56.50;;;;;;5487635;26;19931;-70
2024/04/26 09:20:42;;;;;;;;;;;18.40;56.70;;;;;;5487840;26;19934;-68
2024/04/26 09:23:09;;;;;;;;;;;18.30;56.20;;;;;;5487762;26;20327;-68
2024/04/26 09:25:39;;;;;;;;;;;18.60;56.50;;;;;;5487889;26;19928;-69
2024/04/26 09:28:11;;;;;;;;;;;18.60;56.20;;;;;;5487603;26;20422;-69
2024/04/26 09:30:46;;;;;;;;;;;18.60;53.00;;;;;;5487683;26;19935;-69
2024/04/26 09:33:15;;;;;;;;;;;18.70;53.10;;;;;;5487866;26;19936;-69
2024/04/26 09:35:42;;;;;;;;;;;18.60;56.20;;;;;;5487813;26;19935;-69
2024/04/26 09:38:08;;;;;;;;;;;18.70;56.00;;;;;;5487610;26;19939;-69
2024/04/26 09:40:34;;;;;;;;;;;18.70;56.60;;;;;;5487732;26;19939;-69
2024/04/26 09:43:01;;;;;;;;;;;18.80;56.20;;;;;;5487003;26;19940;-69
2024/04/26 09:45:27;;;;;;;;;;;18.80;55.70;;;;;;5487682;26;20256;-69
2024/04/26 09:47:53;;;;;;;;;;;18.90;55.70;;;;;;5487340;26;19940;-69
2024/04/26 09:50:19;;;;;;;;;;;18.90;55.70;;;;;;5487557;26;19928;-69
2024/04/26 09:52:49;;;;;;;;;;;19.50;55.60;;;;;;5487176;26;19965;-68
2024/04/26 09:55:18;;;;;;;;;;;19.00;55.80;;;;;;5487350;26;20336;-69
2024/04/26 09:57:43;;;;;;;;;;;19.50;55.40;;;;;;5486995;26;19936;-69
2024/04/26 10:00:09;;;;;;;;;;;20.50;56.10;;;;;;5487056;26;19979;-69
2024/04/26 10:02:36;;;;;;;;;;;19.10;55.10;;;;;;5487003;26;19928;-70
2024/04/26 10:05:01;;;;;;;;;;;19.10;55.20;;;;;;5486760;26;19928;-69
2024/04/26 10:07:27;;;;;;;;;;;19.20;55.10;;;;;;5486747;26;19934;-68
2024/04/26 10:09:54;;;;;;;;;;;19.30;55.10;;;;;;5485955;26;20007;-70
2024/04/26 10:12:29;;;;;;;;;;;19.40;54.80;;;;;;5486037;26;19938;-68
2024/04/26 10:15:08;;;;;;;;;;;19.50;51.60;;;;;;5487027;26;19998;-69
2024/04/26 10:17:34;;;;;;;;;;;19.60;51.50;;;;;;5487030;26;20363;-68
2024/04/26 10:20:03;;;;;;;;;;;19.70;54.20;;;;;;5486746;26;19996;-70
2024/04/26 10:22:46;;;;;;;;;;;19.80;53.70;;;;;;5486489;26;19928;-69
2024/04/26 10:25:22;;;;;;;;;;;19.90;53.40;;;;;;5486649;26;20232;-70
2024/04/26 10:27:48;;;;;;;;;;;19.90;53.30;;;;;;5486958;26;19928;-70
2024/04/26 10:30:16;;;;;;;;;;;20.00;53.30;;;;;;5487156;26;20244;-71
2024/04/26 10:32:42;;;;;;;;;;;20.00;50.50;;;;;;5486844;26;19928;-71
2024/04/26 10:35:20;;;;;;;;;;;20.00;53.40;;;;;;5484574;26;19928;-70
2024/04/26 10:37:58;;;;;;;;;;;20.00;50.60;;;;;;5486321;26;19928;-70
2024/04/26 10:40:24;;;;;;;;;;;20.10;50.50;;;;;;5486298;26;19973;-70
2024/04/26 10:42:50;;;;;;;;;;;19.90;53.10;;;;;;5486749;26;19936;-70
2024/04/26 10:45:16;;;;;;;;;;;20.30;53.00;;;;;;5486194;26;20051;-70
2024/04/26 10:47:41;;;;;;;;;;;20.30;52.80;;;;;;5486318;26;19928;-70
2024/04/26 10:50:07;;;;;;;;;;;20.40;52.80;;;;;;5483885;26;20311;-70
2024/04/26 10:52:33;;;;;;;;;;;20.40;53.00;;;;;;5485313;26;19996;-70
2024/04/26 10:54:59;;;;;;;;;;;20.50;52.90;;;;;;5486091;26;19964;-70
2024/04/26 10:57:24;;;;;;;;;;;20.60;52.50;;;;;;5485940;26;20395;-70
2024/04/26 10:59:57;;;;;;;;;;;20.60;52.20;;;;;;5486035;26;19965;-70
2024/04/26 11:02:23;;;;;;;;;;;20.80;51.90;;;;;;5486057;26;19935;-70
2024/04/26 11:04:59;;;;;;;;;;;20.60;52.10;;;;;;5488666;26;19956;-69
2024/04/26 11:07:25;;;;;;;;;;;20.60;52.20;;;;;;5489835;26;19928;-69
2024/04/26 11:09:51;;;;;;;;;;;20.70;52.50;;;;;;5490084;26;19960;-69
2024/04/26 11:12:16;;;;;;;;;;;20.80;52.30;;;;;;5489498;26;19936;-69
2024/04/26 11:14:42;;;;;;;;;;;20.90;51.90;;;;;;5489106;26;19928;-70
2024/04/26 11:17:08;;;;;;;;;;;20.90;51.60;;;;;;5488296;26;20248;-69
2024/04/26 11:19:35;;;;;;;;;;;21.00;51.70;;;;;;5487616;26;19935;-69
2024/04/26 11:22:01;;;;;;;;;;;21.00;51.90;;;;;;5488769;26;20354;-69
2024/04/26 11:24:27;;;;;;;;;;;21.30;52.00;;;;;;5488777;26;19972;-69
2024/04/26 11:26:53;;;;;;;;;;;21.00;51.90;;;;;;5488734;26;19927;-69
2024/04/26 11:29:19;;;;;;;;;;;21.00;52.20;;;;;;5489195;26;19928;-69
2024/04/26 11:31:45;;;;;;;;;;;21.00;52.20;;;;;;5489196;26;20327;-69
2024/04/26 11:34:13;;;;;;;;;;;21.10;51.90;;;;;;5490367;26;19938;-69
2024/04/26 11:36:42;;;;;;;;;;;21.10;51.90;;;;;;5489644;26;20347;-71
2024/04/26 11:39:09;;;;;;;;;;;21.10;49.20;;;;;;5489232;26;19940;-71
2024/04/26 11:41:35;;;;;;;;;;;21.30;51.60;;;;;;5489387;26;20227;-70
2024/04/26 11:44:00;;;;;;;;;;;21.30;51.50;;;;;;5489311;26;19936;-70
2024/04/26 11:46:26;;;;;;;;;;;21.20;51.70;;;;;;5489192;26;20247;-70
2024/04/26 11:48:54;;;;;;;;;;;21.20;52.00;;;;;;5489072;26;20116;-69
2024/04/26 11:51:20;;;;;;;;;;;21.10;51.30;;;;;;5489207;26;19927;-69
2024/04/26 11:53:47;;;;;;;;;;;21.10;52.10;;;;;;5489013;26;20000;-69
2024/04/26 11:56:12;;;;;;;;;;;21.30;51.70;;;;;;5488995;26;20370;-69
2024/04/26 11:58:38;;;;;;;;;;;21.30;50.80;;;;;;5489138;26;19931;-69
2024/04/26 12:01:03;;;;;;;;;;;21.30;50.70;;;;;;5489370;26;19928;-69
2024/04/26 12:03:29;;;;;;;;;;;21.50;50.10;;;;;;5489284;26;19928;-69
2024/04/26 12:05:55;;;;;;;;;;;21.50;50.30;;;;;;5488979;26;19952;-69
2024/04/26 12:08:20;;;;;;;;;;;21.60;50.00;;;;;;5489351;26;19961;-70
2024/04/26 12:10:46;;;;;;;;;;;21.50;50.20;;;;;;5489008;26;19934;-69
2024/04/26 12:13:11;;;;;;;;;;;21.60;50.40;;;;;;5489038;26;19928;-69
2024/04/26 12:15:37;;;;;;;;;;;21.60;50.40;;;;;;5487314;26;20253;-69
2024/04/26 12:18:02;;;;;;;;;;;21.60;50.60;;;;;;5489001;26;19995;-69
2024/04/26 12:20:28;;;;;;;;;;;21.50;50.40;;;;;;5489235;26;19996;-73
2024/04/26 12:22:54;;;;;;;;;;;21.60;50.40;;;;;;5489091;26;20110;-75
2024/04/26 12:25:20;;;;;;;;;;;21.70;50.10;;;;;;5488758;26;20330;-75
2024/04/26 12:27:46;;;;;;;;;;;21.80;49.90;;;;;;5489141;26;19997;-75
2024/04/26 12:30:12;;;;;;;;;;;21.90;49.50;;;;;;5488642;26;19956;-76
2024/04/26 12:32:37;;;;;;;;;;;22.00;49.50;;;;;;5489072;26;19935;-75
2024/04/26 12:35:03;;;;;;;;;;;22.10;49.20;;;;;;5487211;26;20019;-76
2024/04/26 12:37:29;;;;;;;;;;;22.20;48.80;;;;;;5488786;26;19928;-78
2024/04/26 12:39:55;;;;;;;;;;;22.00;49.20;;;;;;5488547;26;19936;-77
2024/04/26 12:42:22;;;;;;;;;;;22.00;49.10;;;;;;5488719;26;19936;-77
2024/04/26 12:44:49;;;;;;;;;;;22.20;49.10;;;;;;5488540;26;19928;-77
2024/04/26 12:47:20;;;;;;;;;;;22.20;49.20;;;;;;5488190;26;19940;-77
2024/04/26 12:49:47;;;;;;;;;;;22.20;48.50;;;;;;5488590;26;20288;-77
2024/04/26 12:52:13;;;;;;;;;;;22.20;50.30;;;;;;5488448;26;19935;-76
2024/04/26 12:54:38;;;;;;;;;;;22.10;49.80;;;;;;5488301;26;19928;-77
2024/04/26 12:57:03;;;;;;;;;;;22.20;49.70;;;;;;5488715;26;19939;-78
2024/04/26 12:59:29;;;;;;;;;;;22.10;49.60;;;;;;5488490;26;19996;-77
2024/04/26 13:01:55;;;;;;;;;;;22.20;49.20;;;;;;5488081;26;20378;-77
2024/04/26 13:04:21;;;;;;;;;;;22.10;50.00;;;;;;5488047;26;19928;-78
2024/04/26 13:06:46;;;;;;;;;;;22.20;49.90;;;;;;5487955;26;20027;-78
2024/04/26 13:09:12;;;;;;;;;;;22.20;49.60;;;;;;5487815;26;19928;-78
2024/04/26 13:11:37;;;;;;;;;;;22.40;49.50;;;;;;5487668;26;19928;-78
2024/04/26 13:14:03;;;;;;;;;;;22.30;49.50;;;;;;5487941;26;20009;-78
2024/04/26 13:16:28;;;;;;;;;;;22.30;49.80;;;;;;5487900;26;20132;-78
2024/04/26 13:18:54;;;;;;;;;;;22.20;49.60;;;;;;5487316;26;19935;-77
2024/04/26 13:21:20;;;;;;;;;;;22.20;50.00;;;;;;5487828;26;19961;-77
2024/04/26 13:23:46;;;;;;;;;;;22.20;50.10;;;;;;5487866;26;19935;-78
2024/04/26 13:26:12;;;;;;;;;;;22.10;50.20;;;;;;5487196;26;19956;-77
2024/04/26 13:28:37;;;;;;;;;;;22.10;50.10;;;;;;5487795;26;20011;-77
2024/04/26 13:31:03;;;;;;;;;;;22.10;50.00;;;;;;5487682;26;19947;-78
2024/04/26 13:33:28;;;;;;;;;;;22.20;49.90;;;;;;5486333;26;19932;-77
2024/04/26 13:35:54;;;;;;;;;;;22.30;50.00;;;;;;5487871;26;19928;-77
2024/04/26 13:38:20;;;;;;;;;;;22.50;50.00;;;;;;5487442;26;19928;-77
2024/04/26 13:40:46;;;;;;;;;;;22.30;49.80;;;;;;5487439;26;19928;-77
2024/04/26 13:43:12;;;;;;;;;;;22.30;50.00;;;;;;5487658;26;19940;-78
2024/04/26 13:45:38;;;;;;;;;;;22.20;49.80;;;;;;5485505;26;19943;-78
2024/04/26 13:48:04;;;;;;;;;;;22.20;50.10;;;;;;5487156;26;19928;-77
2024/04/26 13:50:29;;;;;;;;;;;22.20;49.20;;;;;;5487273;26;19956;-77
2024/04/26 13:52:55;;;;;;;;;;;22.10;50.20;;;;;;5487302;26;20367;-78
2024/04/26 13:55:20;;;;;;;;;;;22.00;50.10;;;;;;5487040;26;19935;-78
2024/04/26 13:57:46;;;;;;;;;;;21.90;50.30;;;;;;5490035;26;19928;-78
2024/04/26 14:00:11;;;;;;;;;;;21.50;50.30;;;;;;5487528;26;19960;-76
2024/04/26 14:02:37;;;;;;;;;;;21.80;50.60;;;;;;5492172;26;19928;-77
2024/04/26 14:05:05;;;;;;;;;;;21.70;51.00;;;;;;5487008;26;19932;-77
2024/04/26 14:07:32;;;;;;;;;;;21.80;50.70;;;;;;5487658;26;20247;-77
2024/04/26 14:09:57;;;;;;;;;;;21.90;50.70;;;;;;5487262;26;20308;-78